createdAt,value
2022-11-15T00:01:15.217Z,4.52
2022-11-15T00:04:00.531Z,4.51
2022-11-15T00:06:46.051Z,4.49
2022-11-15T00:09:31.335Z,4.50
2022-11-15T00:12:16.635Z,4.50
2022-11-15T00:15:02.133Z,4.47
2022-11-15T00:17:50.696Z,4.49
2022-11-15T00:20:36.382Z,4.49
2022-11-15T00:23:21.755Z,4.50
2022-11-15T00:26:07.370Z,4.53
2022-11-15T00:28:55.895Z,4.53
2022-11-15T00:31:41.619Z,4.58
2022-11-15T00:34:27.169Z,4.57
2022-11-15T00:37:12.628Z,4.53
2022-11-15T00:39:57.845Z,4.56
2022-11-15T00:42:43.514Z,4.58
2022-11-15T00:45:28.686Z,4.59
2022-11-15T00:48:14.092Z,4.61
2022-11-15T00:50:59.641Z,4.59
2022-11-15T00:53:45.134Z,4.58
2022-11-15T00:56:30.650Z,4.59
2022-11-15T00:59:15.881Z,4.63
2022-11-15T01:02:01.282Z,4.60
2022-11-15T01:04:46.536Z,4.60
2022-11-15T01:07:32.024Z,4.58
2022-11-15T01:10:17.710Z,4.59
2022-11-15T01:13:03.389Z,4.55
2022-11-15T01:15:48.793Z,4.60
2022-11-15T01:18:34.345Z,4.56
2022-11-15T01:21:21.177Z,4.58
2022-11-15T01:24:06.801Z,4.57
2022-11-15T01:26:52.345Z,4.56
2022-11-15T01:29:37.639Z,4.56
2022-11-15T01:32:23.075Z,4.59
2022-11-15T01:35:08.477Z,4.58
2022-11-15T01:37:53.968Z,4.58
2022-11-15T01:40:39.298Z,4.51
2022-11-15T01:43:29.075Z,4.57
2022-11-15T01:46:26.769Z,4.57
2022-11-15T01:49:22.248Z,4.51
2022-11-15T01:52:12.059Z,4.47
2022-11-15T01:55:07.483Z,4.52
2022-11-15T01:57:57.471Z,4.50
2022-11-15T02:00:43.075Z,4.47
2022-11-15T02:03:39.021Z,4.49
2022-11-15T02:06:24.490Z,4.45
2022-11-15T02:09:10.572Z,4.46
2022-11-15T02:11:57.070Z,4.47
2022-11-15T02:14:46.422Z,4.48
2022-11-15T02:17:47.070Z,4.46
2022-11-15T02:20:57.887Z,4.43
2022-11-15T02:23:46.378Z,4.46
2022-11-15T02:26:37.784Z,4.47
2022-11-15T02:29:39.037Z,4.47
2022-11-15T02:32:33.748Z,4.48
2022-11-15T02:35:21.948Z,4.49
2022-11-15T02:38:28.707Z,4.55
2022-11-15T02:41:41.038Z,4.56
2022-11-15T02:44:34.824Z,4.55
2022-11-15T02:47:22.094Z,4.57
2022-11-15T02:50:13.770Z,4.58
2022-11-15T02:52:59.098Z,4.56
2022-11-15T02:55:52.592Z,4.58
2022-11-15T02:58:59.320Z,4.59
2022-11-15T03:02:03.096Z,4.60
2022-11-15T03:04:53.711Z,4.59
2022-11-15T03:08:05.880Z,4.58
2022-11-15T03:11:12.708Z,4.56
2022-11-15T03:14:02.206Z,4.57
2022-11-15T03:17:13.118Z,4.57
2022-11-15T03:20:02.135Z,4.56
2022-11-15T03:22:50.511Z,4.60
2022-11-15T03:25:42.324Z,4.55
2022-11-15T03:28:39.829Z,4.56
2022-11-15T03:31:50.461Z,4.57
2022-11-15T03:34:45.553Z,4.61
2022-11-15T03:37:40.244Z,4.62
2022-11-15T03:40:41.982Z,4.62
2022-11-15T03:43:40.962Z,4.61
2022-11-15T03:46:34.077Z,4.58
2022-11-15T03:49:26.995Z,4.52
2022-11-15T03:52:12.769Z,4.51
2022-11-15T03:55:01.145Z,4.60
2022-11-15T03:57:49.309Z,4.61
2022-11-15T04:00:34.953Z,4.56
2022-11-15T04:03:20.554Z,4.57
2022-11-15T04:06:05.931Z,4.58
2022-11-15T04:08:51.108Z,4.57
2022-11-15T04:11:36.546Z,4.61
2022-11-15T04:14:21.943Z,4.58
2022-11-15T04:17:07.260Z,4.53
2022-11-15T04:20:11.106Z,4.51
2022-11-15T04:23:16.601Z,4.58
2022-11-15T04:26:11.168Z,4.52
2022-11-15T04:29:14.958Z,4.55
2022-11-15T04:32:00.681Z,4.57
2022-11-15T04:34:46.283Z,4.59
2022-11-15T04:37:31.849Z,4.55
2022-11-15T04:40:17.428Z,4.51
2022-11-15T04:43:04.555Z,4.54
2022-11-15T04:45:49.945Z,4.52
2022-11-15T04:48:35.184Z,4.55
2022-11-15T04:51:21.111Z,4.53
2022-11-15T04:54:06.575Z,4.55
2022-11-15T04:56:51.787Z,4.58
2022-11-15T04:59:37.112Z,4.54
2022-11-15T05:02:22.453Z,4.57
2022-11-15T05:05:08.527Z,4.56
2022-11-15T05:07:53.903Z,4.55
2022-11-15T05:10:39.553Z,4.52
2022-11-15T05:13:25.250Z,4.60
2022-11-15T05:16:10.641Z,4.56
2022-11-15T05:18:56.214Z,4.56
2022-11-15T05:21:41.811Z,4.59
2022-11-15T05:24:27.482Z,4.60
2022-11-15T05:27:13.029Z,4.64
2022-11-15T05:29:58.086Z,4.56
2022-11-15T05:32:44.207Z,4.60
2022-11-15T05:35:41.441Z,4.59
2022-11-15T05:38:27.260Z,4.63
2022-11-15T05:41:14.108Z,4.67
2022-11-15T05:43:59.890Z,4.67
2022-11-15T05:46:46.272Z,4.69
2022-11-15T05:49:36.212Z,4.74
2022-11-15T05:52:26.611Z,4.72
2022-11-15T05:55:12.198Z,4.73
2022-11-15T05:57:57.450Z,4.69
2022-11-15T06:00:44.314Z,4.71
2022-11-15T06:03:29.854Z,4.79
2022-11-15T06:06:16.606Z,4.78
2022-11-15T06:09:02.153Z,4.83
2022-11-15T06:11:47.692Z,4.81
2022-11-15T06:14:33.009Z,4.81
2022-11-15T06:17:18.298Z,4.85
2022-11-15T06:20:04.517Z,4.87
2022-11-15T06:22:49.989Z,4.94
2022-11-15T06:25:35.489Z,4.96
2022-11-15T06:28:20.612Z,4.98
2022-11-15T06:31:08.681Z,5.02
2022-11-15T06:33:54.277Z,5.01
2022-11-15T06:36:39.576Z,5.02
2022-11-15T06:39:24.975Z,5.04
2022-11-15T06:42:10.468Z,5.08
2022-11-15T06:44:56.094Z,5.04
2022-11-15T06:47:48.055Z,5.15
2022-11-15T06:50:33.504Z,5.25
2022-11-15T06:53:18.762Z,5.23
2022-11-15T06:56:06.728Z,5.21
2022-11-15T06:58:52.229Z,5.28
2022-11-15T07:01:37.481Z,5.36
2022-11-15T07:04:23.081Z,5.31
2022-11-15T07:07:08.705Z,5.45
2022-11-15T07:09:54.496Z,5.44
2022-11-15T07:12:40.081Z,5.51
2022-11-15T07:15:27.331Z,5.45
2022-11-15T07:18:12.776Z,5.49
2022-11-15T07:21:03.062Z,5.51
2022-11-15T07:23:48.285Z,5.51
2022-11-15T07:26:33.727Z,5.61
2022-11-15T07:29:19.060Z,5.62
2022-11-15T07:32:04.634Z,5.60
2022-11-15T07:34:49.812Z,5.68
2022-11-15T07:37:35.096Z,5.74
2022-11-15T07:40:20.683Z,5.70
2022-11-15T07:43:08.662Z,5.72
2022-11-15T07:45:58.788Z,5.78
2022-11-15T07:48:45.372Z,5.86
2022-11-15T07:51:31.363Z,5.82
2022-11-15T07:54:16.906Z,5.77
2022-11-15T07:57:06.996Z,5.86
2022-11-15T07:59:53.481Z,5.86
2022-11-15T08:02:39.300Z,5.95
2022-11-15T08:05:24.927Z,5.91
2022-11-15T08:08:12.218Z,5.83
2022-11-15T08:11:00.699Z,5.80
2022-11-15T08:13:45.689Z,5.83
2022-11-15T08:16:31.141Z,5.98
2022-11-15T08:19:16.760Z,6.03
2022-11-15T08:22:02.218Z,6.07
2022-11-15T08:24:47.628Z,6.07
2022-11-15T08:27:32.932Z,6.20
2022-11-15T08:30:18.411Z,6.27
2022-11-15T08:33:04.602Z,6.21
2022-11-15T08:35:50.057Z,6.17
2022-11-15T08:38:35.832Z,6.19
2022-11-15T08:41:32.812Z,6.29
2022-11-15T08:44:18.165Z,6.36
2022-11-15T08:47:03.912Z,6.45
2022-11-15T08:49:49.632Z,6.49
2022-11-15T08:52:35.111Z,6.44
2022-11-15T08:55:23.503Z,6.50
2022-11-15T08:58:10.307Z,6.48
2022-11-15T09:00:56.544Z,6.51
2022-11-15T09:03:42.530Z,6.62
2022-11-15T09:06:28.312Z,6.56
2022-11-15T09:09:13.692Z,6.62
2022-11-15T09:12:02.509Z,6.58
2022-11-15T09:14:48.246Z,6.71
2022-11-15T09:17:33.592Z,6.68
2022-11-15T09:20:18.813Z,6.76
2022-11-15T09:23:05.048Z,6.69
2022-11-15T09:25:50.513Z,6.77
2022-11-15T09:31:39.385Z,6.99
2022-11-15T09:34:24.839Z,6.93
2022-11-15T09:37:10.181Z,7.00
2022-11-15T09:39:55.619Z,6.94
2022-11-15T09:42:56.775Z,6.86
2022-11-15T10:18:09.737Z,7.28
2022-11-15T10:21:04.012Z,7.39
2022-11-15T10:23:32.973Z,7.40
2022-11-15T10:26:06.436Z,7.32
2022-11-15T10:28:34.125Z,7.39
2022-11-15T10:31:05.789Z,7.48
2022-11-15T10:33:35.451Z,7.59
2022-11-15T10:36:17.148Z,7.65
2022-11-15T10:38:49.814Z,7.70
2022-11-15T10:41:38.834Z,7.78
2022-11-15T10:44:08.267Z,7.87
2022-11-15T10:46:46.637Z,7.89
2022-11-15T10:49:21.476Z,7.96
2022-11-15T10:51:55.766Z,8.04
2022-11-15T10:54:28.757Z,8.05
2022-11-15T10:56:58.372Z,8.01
2022-11-15T11:40:31.245Z,9.35
2022-11-15T15:22:05.706Z,10.15
2022-11-15T15:24:33.285Z,9.93
2022-11-15T15:27:00.189Z,9.97
2022-11-15T15:29:27.039Z,9.82
2022-11-15T15:31:53.928Z,9.93
2022-11-15T15:34:21.550Z,9.97
2022-11-15T15:36:48.583Z,9.99
2022-11-15T15:39:15.416Z,10.00
2022-11-15T15:41:42.488Z,9.85
2022-11-15T15:44:09.355Z,10.00
2022-11-15T15:46:36.445Z,9.82
2022-11-15T15:49:03.439Z,9.89
2022-11-15T15:51:30.366Z,9.83
2022-11-15T15:53:59.176Z,9.83
2022-11-15T15:56:26.187Z,9.92
2022-11-15T15:58:53.672Z,9.93
2022-11-15T16:01:20.960Z,9.96
2022-11-15T16:03:48.052Z,9.90
2022-11-15T16:06:37.845Z,9.83
2022-11-15T16:09:15.020Z,9.77
2022-11-15T16:11:44.724Z,9.78
2022-11-15T16:14:11.928Z,9.83
2022-11-15T16:16:39.166Z,9.72
2022-11-15T16:19:06.084Z,9.77
2022-11-15T16:21:33.026Z,9.73
2022-11-15T16:24:01.049Z,9.70
2022-11-15T16:26:29.986Z,9.54
2022-11-15T16:28:57.121Z,9.59
2022-11-15T16:31:24.013Z,9.47
2022-11-15T16:33:50.940Z,9.34
2022-11-15T16:36:30.738Z,9.50
2022-11-15T16:38:58.904Z,9.63
2022-11-15T16:41:26.469Z,9.58
2022-11-15T16:43:53.521Z,9.61
2022-11-15T16:46:22.933Z,9.47
2022-11-15T16:48:50.739Z,9.54
2022-11-15T16:51:18.068Z,9.52
2022-11-15T16:53:45.575Z,9.68
2022-11-15T16:56:22.668Z,9.80
2022-11-15T16:58:49.648Z,9.67
2022-11-15T17:01:34.004Z,9.67
2022-11-15T17:04:12.826Z,9.64
2022-11-15T17:06:41.357Z,9.73
2022-11-15T17:09:16.189Z,9.75
2022-11-15T17:11:43.884Z,9.69
2022-11-15T17:14:11.819Z,9.70
2022-11-15T17:16:42.480Z,9.71
2022-11-15T17:19:21.963Z,9.80
2022-11-15T17:21:52.084Z,9.85
2022-11-15T17:24:21.261Z,9.85
2022-11-15T17:26:48.342Z,9.96
2022-11-15T17:29:15.272Z,9.82
2022-11-15T17:31:42.190Z,9.80
2022-11-15T17:34:09.128Z,9.78
2022-11-15T17:36:36.325Z,9.59
2022-11-15T17:39:04.519Z,9.83
2022-11-15T17:41:31.941Z,10.04
2022-11-15T17:44:00.451Z,10.06
2022-11-15T17:46:28.556Z,9.94
2022-11-15T17:48:57.040Z,9.81
2022-11-15T17:51:24.360Z,9.79
2022-11-15T17:53:51.654Z,9.78
2022-11-15T17:56:23.506Z,9.82
2022-11-15T17:58:53.160Z,9.69
2022-11-15T18:01:21.543Z,9.67
2022-11-15T18:03:49.343Z,9.67
2022-11-15T18:06:17.646Z,9.64
2022-11-15T18:08:46.236Z,9.54
2022-11-15T18:11:17.563Z,9.48
2022-11-15T18:13:51.910Z,9.36
2022-11-15T18:16:21.732Z,9.33
2022-11-15T18:18:49.118Z,9.25
2022-11-15T18:21:21.920Z,9.19
2022-11-15T18:23:53.432Z,9.16
2022-11-15T18:26:25.682Z,9.19
2022-11-15T18:28:57.139Z,8.91
2022-11-15T18:31:28.120Z,8.85
2022-11-15T18:33:55.330Z,8.93
2022-11-15T18:36:25.275Z,8.93
2022-11-15T18:39:00.784Z,8.91
2022-11-15T18:41:30.973Z,8.85
2022-11-15T18:43:59.673Z,8.82
2022-11-15T18:46:29.988Z,8.92
2022-11-15T18:48:59.192Z,8.96
2022-11-15T18:51:30.090Z,8.92
2022-11-15T18:54:00.310Z,8.87
2022-11-15T18:56:28.689Z,8.72
2022-11-15T18:58:59.270Z,8.67
2022-11-15T19:01:35.144Z,8.43
2022-11-15T19:04:21.019Z,8.13
2022-11-15T19:06:50.199Z,8.04
2022-11-15T19:09:19.056Z,7.84
2022-11-15T19:11:47.686Z,8.03
2022-11-15T19:14:18.178Z,7.80
2022-11-15T19:16:52.411Z,7.90
2022-11-15T19:19:28.542Z,7.83
2022-11-15T19:21:57.327Z,7.89
2022-11-15T19:24:25.019Z,7.82
2022-11-15T19:26:51.916Z,7.98
2022-11-15T19:29:18.972Z,7.60
2022-11-15T19:31:47.726Z,7.85
2022-11-15T19:34:14.772Z,7.84
2022-11-15T19:36:43.694Z,7.90
2022-11-15T19:39:14.627Z,7.87
2022-11-15T19:41:43.170Z,7.78
2022-11-15T19:44:11.958Z,7.93
2022-11-15T19:46:39.415Z,7.91
2022-11-15T19:49:08.152Z,7.92
2022-11-15T19:51:35.080Z,7.62
2022-11-15T19:54:06.766Z,7.56
2022-11-15T19:56:35.281Z,7.47
2022-11-15T19:59:03.170Z,7.63
2022-11-15T20:01:32.583Z,7.51
2022-11-15T20:04:00.921Z,7.79
2022-11-15T20:06:30.762Z,7.85
2022-11-15T20:08:58.271Z,7.97
2022-11-15T20:11:26.238Z,7.73
2022-11-15T20:14:00.508Z,7.62
2022-11-15T20:16:27.760Z,7.57
2022-11-15T20:18:54.783Z,7.41
2022-11-15T20:21:22.332Z,7.40
2022-11-15T20:23:51.142Z,7.52
2022-11-15T20:26:19.749Z,7.54
2022-11-15T20:28:48.258Z,7.46
2022-11-15T20:31:16.175Z,7.51
2022-11-15T20:33:43.115Z,7.55
2022-11-15T20:36:13.549Z,7.54
2022-11-15T20:38:40.681Z,7.62
2022-11-15T20:41:07.763Z,7.61
2022-11-15T20:43:34.866Z,7.16
2022-11-15T20:46:01.828Z,7.01
2022-11-15T20:48:28.871Z,6.91
2022-11-15T20:51:13.063Z,7.08
2022-11-15T20:53:41.124Z,7.24
2022-11-15T20:56:11.424Z,7.27
2022-11-15T20:58:38.944Z,7.20
2022-11-15T21:01:07.756Z,7.27
2022-11-15T21:03:35.063Z,6.90
2022-11-15T21:06:02.316Z,6.96
2022-11-15T21:08:49.996Z,6.99
2022-11-15T21:11:35.564Z,7.28
2022-11-15T21:14:07.770Z,7.14
2022-11-15T21:16:36.225Z,7.27
2022-11-15T21:19:03.176Z,7.25
2022-11-15T21:21:30.113Z,7.33
2022-11-15T21:23:57.026Z,7.32
2022-11-15T21:26:23.991Z,7.09
2022-11-15T21:28:50.889Z,7.12
2022-11-15T21:31:17.804Z,7.24
2022-11-15T21:33:44.782Z,7.10
2022-11-15T21:36:11.710Z,7.14
2022-11-15T21:38:38.748Z,7.13
2022-11-15T21:41:06.173Z,7.26
2022-11-15T21:43:33.398Z,7.18
2022-11-15T21:46:02.989Z,7.29
2022-11-15T21:48:31.769Z,7.40
2022-11-15T21:51:10.892Z,7.38
2022-11-15T21:53:37.828Z,7.30
2022-11-15T21:56:05.107Z,7.41
2022-11-15T21:58:32.267Z,7.40
2022-11-15T22:01:18.413Z,7.24
2022-11-15T22:03:46.036Z,7.22
2022-11-15T22:06:17.456Z,7.28
2022-11-15T22:08:46.338Z,7.16
2022-11-15T22:11:14.377Z,7.23
2022-11-15T22:13:41.744Z,7.17
2022-11-15T22:16:09.583Z,7.02
2022-11-15T22:18:37.666Z,7.06
2022-11-15T22:21:07.875Z,7.04
2022-11-15T22:23:35.373Z,6.99
2022-11-15T22:26:02.606Z,7.10
2022-11-15T22:28:30.571Z,6.95
2022-11-15T22:30:58.551Z,6.89
2022-11-15T22:33:27.805Z,6.98
2022-11-15T22:35:54.945Z,7.09
2022-11-15T22:38:22.506Z,7.13
2022-11-15T22:40:50.019Z,7.13
2022-11-15T22:43:19.284Z,7.09
2022-11-15T22:45:52.028Z,7.05
2022-11-15T22:48:30.465Z,6.83
2022-11-15T22:50:58.092Z,6.82
2022-11-15T22:53:25.486Z,6.79
2022-11-15T22:55:54.629Z,6.70
2022-11-15T22:58:23.235Z,6.74
2022-11-15T23:00:55.489Z,6.72
2022-11-15T23:03:23.584Z,7.00
2022-11-15T23:05:50.929Z,6.84
2022-11-15T23:08:18.863Z,7.01
2022-11-15T23:11:04.698Z,6.95
2022-11-15T23:13:33.276Z,6.89
2022-11-15T23:16:22.594Z,6.98
2022-11-15T23:18:51.737Z,6.99
2022-11-15T23:21:58.193Z,6.85
2022-11-15T23:24:25.825Z,6.90
2022-11-15T23:26:55.783Z,6.85
2022-11-15T23:29:25.137Z,6.86
2022-11-15T23:32:11.920Z,6.95
2022-11-15T23:34:41.322Z,6.88
2022-11-15T23:37:10.605Z,6.86
2022-11-15T23:39:37.652Z,6.85
2022-11-15T23:42:09.012Z,6.87
2022-11-15T23:44:36.984Z,6.79
2022-11-15T23:47:03.984Z,6.68
2022-11-15T23:49:30.987Z,6.62
2022-11-15T23:51:57.950Z,6.68
2022-11-15T23:54:24.871Z,6.64
2022-11-15T23:56:51.844Z,6.63
2022-11-15T23:59:18.834Z,6.67
